Главная страница
METAR-TAF:

METAR-TAF

Аэропорты :

Центральная вертолётная станция Манхэттена

Нью-Йорк, Нью-Йорк, США

широта: 40-42-04N, долгота: 074-00-32W, высота над уровнем моря: 2 м

Текущие метеонаблюдения

Эта сводка был подготовлена 40 минут назад, в 15:56 UTC
Ветер 9 Узел от западный с порывами до 18 Узел
Температура 2°C
Влажность 64%
Давление 1019 hPa
Видимость: 16.1 км
Сплошная облачность на высоте 3300 фута

METAR: KJRB 161556Z AUTO 26009G18KT 10SM OVC033 02/M04 A3010 RMK AO2 SLP193 T00171039 FZRANO

Время: 11:36 (16:36 UTC)


TAF: отсутствует

Метеонаблюдения и прогнозы для более 4000 аэропортов (сводки METAR и TAF).

Имеющиеся станции представлены на карте желтыми и красными точками.

Чтобы увидеть название станции, наведите на нее мышь.

Затем щелкните, чтобы увидеть метеонаблюдения и метеопрогнозы.

Управление картой: чтобы увеличить масштаб, щелкните зеленые кнопки с черным крестиком; чтобы уменьшить масштаб, щелкните зеленую кнопку с тире; для просмотра соседних карт щелкайте зеленые стрелки.


METAR-TAF: